createdAt,value
2023-04-21T00:00:53.808Z,32.93
2023-04-21T00:03:22.507Z,24.13
2023-04-21T00:05:50.733Z,31.93
2023-04-21T00:08:18.094Z,30.37
2023-04-21T00:10:46.788Z,32.70
2023-04-21T00:13:14.046Z,37.03
2023-04-21T00:15:40.988Z,39.43
2023-04-21T00:18:07.567Z,31.10
2023-04-21T00:20:34.109Z,40.87
2023-04-21T00:23:00.727Z,33.90
2023-04-21T00:25:27.420Z,30.50
2023-04-21T00:27:54.012Z,28.40
2023-04-21T00:30:20.588Z,33.30
2023-04-21T00:32:47.351Z,32.50
2023-04-21T00:35:14.209Z,32.80
2023-04-21T00:37:41.765Z,28.47
2023-04-21T00:40:09.294Z,41.23
2023-04-21T00:42:35.961Z,31.57
2023-04-21T00:45:03.964Z,26.97
2023-04-21T00:47:31.258Z,29.67
2023-04-21T00:50:00.999Z,30.27
2023-04-21T00:52:28.329Z,29.10
2023-04-21T00:54:55.239Z,32.60
2023-04-21T00:57:21.967Z,30.83
2023-04-21T00:59:49.933Z,31.90
2023-04-21T01:02:17.097Z,30.57
2023-04-21T01:04:45.761Z,30.10
2023-04-21T01:07:12.471Z,37.20
2023-04-21T01:09:39.059Z,27.40
2023-04-21T01:12:11.173Z,34.30
2023-04-21T01:14:38.952Z,24.40
2023-04-21T01:17:06.224Z,30.33
2023-04-21T01:19:36.000Z,29.47
2023-04-21T01:22:03.684Z,25.10
2023-04-21T01:24:41.261Z,29.03
2023-04-21T01:27:12.216Z,36.50
2023-04-21T01:29:40.489Z,28.73
2023-04-21T01:32:09.781Z,32.23
2023-04-21T01:34:36.602Z,30.40
2023-04-21T01:37:03.602Z,33.20
2023-04-21T01:39:30.217Z,32.30
2023-04-21T01:41:58.001Z,28.73
2023-04-21T01:44:26.295Z,36.70
2023-04-21T01:46:53.458Z,33.03
2023-04-21T01:49:20.500Z,27.90
2023-04-21T01:51:47.238Z,35.73
2023-04-21T01:54:13.778Z,28.70
2023-04-21T01:56:40.527Z,30.07
2023-04-21T01:59:07.273Z,37.80
2023-04-21T02:01:34.907Z,32.93
2023-04-21T02:04:02.355Z,29.90
2023-04-21T02:06:29.965Z,28.00
2023-04-21T02:08:56.511Z,30.90
2023-04-21T02:11:25.116Z,31.53
2023-04-21T02:13:55.117Z,29.03
2023-04-21T02:16:26.306Z,34.77
2023-04-21T02:18:53.809Z,28.97
2023-04-21T02:21:24.291Z,30.80
2023-04-21T02:23:51.647Z,44.00
2023-04-21T02:26:18.886Z,34.80
2023-04-21T02:28:45.585Z,40.13
2023-04-21T02:31:12.226Z,33.63
2023-04-21T02:33:38.736Z,31.40
2023-04-21T02:36:05.745Z,31.53
2023-04-21T02:38:32.287Z,27.23
2023-04-21T02:40:58.868Z,32.23
2023-04-21T02:43:25.517Z,24.47
2023-04-21T02:45:52.225Z,31.27
2023-04-21T02:48:23.229Z,32.50
2023-04-21T02:50:50.719Z,33.13
2023-04-21T02:53:17.314Z,37.23
2023-04-21T02:55:44.050Z,25.00
2023-04-21T02:58:11.110Z,28.60
2023-04-21T03:00:37.813Z,27.60
2023-04-21T03:03:04.656Z,26.20
2023-04-21T03:05:31.262Z,24.80
2023-04-21T03:07:57.866Z,25.37
2023-04-21T03:10:24.493Z,29.90
2023-04-21T03:12:51.081Z,26.70
2023-04-21T03:15:17.779Z,31.00
2023-04-21T03:17:44.582Z,25.77
2023-04-21T03:20:12.851Z,24.20
2023-04-21T03:22:39.667Z,28.10
2023-04-21T03:25:07.543Z,34.87
2023-04-21T03:27:34.726Z,41.60
2023-04-21T03:30:01.445Z,30.10
2023-04-21T03:32:28.141Z,24.07
2023-04-21T03:34:54.796Z,22.93
2023-04-21T03:37:21.368Z,26.23
2023-04-21T03:39:47.986Z,23.03
2023-04-21T03:42:14.494Z,26.37
2023-04-21T03:44:41.508Z,28.57
2023-04-21T03:47:07.984Z,23.60
2023-04-21T03:49:34.980Z,23.80
2023-04-21T03:52:01.836Z,23.10
2023-04-21T03:54:28.459Z,20.03
2023-04-21T03:56:55.052Z,25.90
2023-04-21T03:59:21.775Z,25.93
2023-04-21T04:01:48.607Z,34.27
2023-04-21T04:04:15.545Z,29.40
2023-04-21T04:06:42.389Z,25.47
2023-04-21T04:09:09.224Z,30.60
2023-04-21T04:11:35.954Z,25.67
2023-04-21T04:14:02.607Z,26.40
2023-04-21T04:16:29.431Z,23.70
2023-04-21T04:18:56.561Z,29.20
2023-04-21T04:21:23.302Z,27.30
2023-04-21T04:23:53.475Z,31.03
2023-04-21T04:26:22.704Z,24.73
2023-04-21T04:28:49.299Z,28.90
2023-04-21T04:31:17.240Z,25.90
2023-04-21T04:33:44.349Z,23.93
2023-04-21T04:36:14.140Z,19.03
2023-04-21T04:38:41.770Z,20.43
2023-04-21T04:41:09.208Z,24.67
2023-04-21T04:43:39.501Z,21.27
2023-04-21T04:46:06.402Z,30.37
2023-04-21T04:48:33.118Z,21.90
2023-04-21T04:50:59.645Z,26.97
2023-04-21T04:53:28.415Z,25.17
2023-04-21T04:55:55.174Z,22.87
2023-04-21T04:58:22.154Z,25.30
2023-04-21T05:00:48.970Z,21.30
2023-04-21T05:03:15.811Z,19.90
2023-04-21T05:05:42.588Z,22.90
2023-04-21T05:08:09.111Z,22.27
2023-04-21T05:10:35.706Z,24.53
2023-04-21T05:13:02.321Z,27.60
2023-04-21T05:15:28.837Z,28.33
2023-04-21T05:17:55.619Z,29.60
2023-04-21T05:20:22.978Z,30.50
2023-04-21T05:22:50.154Z,24.43
2023-04-21T05:25:16.764Z,28.13
2023-04-21T05:27:43.435Z,21.50
2023-04-21T05:30:10.780Z,25.83
2023-04-21T05:32:37.442Z,24.80
2023-04-21T05:35:04.094Z,23.80
2023-04-21T05:37:30.782Z,25.20
2023-04-21T05:39:57.481Z,25.57
2023-04-21T05:42:24.047Z,31.13
2023-04-21T05:44:50.765Z,56.47
2023-04-21T05:47:17.566Z,30.40
2023-04-21T05:49:50.235Z,32.20
2023-04-21T05:52:17.965Z,26.73
2023-04-21T05:54:44.667Z,28.53
2023-04-21T05:57:11.287Z,27.13
2023-04-21T05:59:37.928Z,25.53
2023-04-21T06:02:04.630Z,27.70
2023-04-21T06:04:31.627Z,25.40
2023-04-21T06:06:58.372Z,27.87
2023-04-21T06:09:24.856Z,32.70
2023-04-21T06:11:51.415Z,32.03
2023-04-21T06:14:18.073Z,25.07
2023-04-21T06:16:44.903Z,29.43
2023-04-21T06:19:12.464Z,25.30
2023-04-21T06:21:39.008Z,25.80
2023-04-21T06:24:05.868Z,30.87
2023-04-21T06:26:32.443Z,30.83
2023-04-21T06:28:58.929Z,31.97
2023-04-21T06:31:25.536Z,28.87
2023-04-21T06:33:52.288Z,33.47
2023-04-21T06:36:18.862Z,34.83
2023-04-21T06:38:45.478Z,30.37
2023-04-21T06:41:12.059Z,28.70
2023-04-21T06:43:38.620Z,29.13
2023-04-21T06:46:05.370Z,30.10
2023-04-21T06:48:32.332Z,27.43
2023-04-21T06:50:59.098Z,29.33
2023-04-21T06:53:25.663Z,27.67
2023-04-21T06:55:53.425Z,30.30
2023-04-21T06:58:21.283Z,25.87
2023-04-21T07:00:48.270Z,28.60
2023-04-21T07:03:15.084Z,23.00
2023-04-21T07:05:41.766Z,26.57
2023-04-21T07:08:08.283Z,26.63
2023-04-21T07:10:34.870Z,24.40
2023-04-21T07:13:01.610Z,28.17
2023-04-21T07:15:28.140Z,26.30
2023-04-21T07:17:55.146Z,20.83
2023-04-21T07:20:22.353Z,28.17
2023-04-21T07:22:48.893Z,28.90
2023-04-21T07:25:15.912Z,28.33
2023-04-21T07:27:42.556Z,27.00
2023-04-21T07:30:09.476Z,23.47
2023-04-21T07:32:38.604Z,25.23
2023-04-21T07:35:06.507Z,26.30
2023-04-21T07:37:33.191Z,26.80
2023-04-21T07:39:59.776Z,26.03
2023-04-21T07:42:26.909Z,30.77
2023-04-21T07:44:53.777Z,22.53
2023-04-21T07:47:20.577Z,22.80
2023-04-21T07:49:47.197Z,24.73
2023-04-21T07:52:13.664Z,25.73
2023-04-21T07:54:40.366Z,21.47
2023-04-21T07:57:09.610Z,26.47
2023-04-21T07:59:36.529Z,22.53
2023-04-21T08:02:03.305Z,23.23
2023-04-21T08:04:30.144Z,25.50
2023-04-21T08:06:59.296Z,21.40
2023-04-21T08:09:26.616Z,18.23
2023-04-21T08:11:53.949Z,24.07
2023-04-21T08:14:22.431Z,28.60
2023-04-21T08:16:49.209Z,21.07
2023-04-21T08:19:15.913Z,20.33
2023-04-21T08:21:42.384Z,16.87
2023-04-21T08:24:09.196Z,20.07
2023-04-21T08:26:35.895Z,25.93
2023-04-21T08:29:04.337Z,20.03
2023-04-21T08:31:31.694Z,21.27
2023-04-21T08:34:02.061Z,22.90
2023-04-21T08:36:30.363Z,28.10
2023-04-21T08:38:57.789Z,24.87
2023-04-21T08:41:24.981Z,25.40
2023-04-21T08:43:51.646Z,29.63
2023-04-21T08:46:19.258Z,23.40
2023-04-21T08:48:47.158Z,34.13
2023-04-21T08:51:21.877Z,20.17
2023-04-21T08:53:48.419Z,21.23
2023-04-21T08:56:15.404Z,21.40
2023-04-21T08:58:42.200Z,23.70
2023-04-21T09:01:09.066Z,22.93
2023-04-21T09:03:35.740Z,29.57
2023-04-21T09:06:08.175Z,22.43
2023-04-21T09:08:39.724Z,26.30
2023-04-21T09:11:06.245Z,23.17
2023-04-21T09:13:37.544Z,27.47
2023-04-21T09:16:08.443Z,43.07
2023-04-21T09:18:37.434Z,22.03
2023-04-21T09:21:07.182Z,45.30
2023-04-21T09:23:46.870Z,25.50
2023-04-21T09:26:14.155Z,21.30
2023-04-21T09:28:44.725Z,19.80
2023-04-21T09:31:21.990Z,25.37
2023-04-21T09:33:57.783Z,22.87
2023-04-21T09:36:28.469Z,20.50
2023-04-21T09:39:17.423Z,22.03
2023-04-21T09:41:41.851Z,19.10
2023-04-21T09:44:08.568Z,21.20
2023-04-21T09:46:37.953Z,21.53
2023-04-21T09:49:05.771Z,21.43
2023-04-21T09:52:05.271Z,23.30
2023-04-21T09:54:29.663Z,26.43
2023-04-21T09:57:00.275Z,17.80
2023-04-21T09:59:30.302Z,23.00
2023-04-21T10:01:58.376Z,19.20
2023-04-21T10:04:26.295Z,17.83
2023-04-21T10:06:53.518Z,17.57
2023-04-21T10:09:22.925Z,20.10
2023-04-21T10:11:49.652Z,16.87
2023-04-21T10:14:16.111Z,23.33
2023-04-21T10:16:43.166Z,17.60
2023-04-21T10:19:26.894Z,20.33
2023-04-21T10:21:59.916Z,20.67
2023-04-21T10:24:30.640Z,21.47
2023-04-21T10:26:59.619Z,20.50
2023-04-21T10:29:40.270Z,17.87
2023-04-21T10:32:10.856Z,20.00
2023-04-21T10:34:41.512Z,25.83
2023-04-21T10:37:11.829Z,24.90
2023-04-21T10:39:55.077Z,23.13
2023-04-21T10:42:27.405Z,19.80
2023-04-21T10:44:56.933Z,25.47
2023-04-21T10:47:44.877Z,18.27
2023-04-21T10:50:21.603Z,18.03
2023-04-21T10:52:59.916Z,18.93
2023-04-21T10:55:27.992Z,21.83
2023-04-21T10:57:54.580Z,17.40
2023-04-21T11:00:23.662Z,17.93
2023-04-21T11:02:55.765Z,14.70
2023-04-21T11:05:28.474Z,16.30
2023-04-21T11:08:03.514Z,14.90
2023-04-21T11:10:30.020Z,18.27
2023-04-21T11:12:57.665Z,13.90
2023-04-21T11:15:24.197Z,13.43
2023-04-21T11:17:51.301Z,15.17
2023-04-21T11:20:17.938Z,22.40
2023-04-21T11:22:44.495Z,15.93
2023-04-21T11:25:18.434Z,19.83
2023-04-21T11:27:56.785Z,19.60
2023-04-21T11:30:35.888Z,13.93
2023-04-21T11:33:03.075Z,19.73
2023-04-21T11:35:29.710Z,15.07
2023-04-21T11:37:56.570Z,27.43
2023-04-21T11:40:23.335Z,21.87
2023-04-21T11:42:50.554Z,16.20
2023-04-21T11:45:21.282Z,16.57
2023-04-21T11:47:49.077Z,16.23
2023-04-21T11:50:32.284Z,14.40
2023-04-21T11:52:58.862Z,13.20
2023-04-21T11:55:25.570Z,14.33
2023-04-21T11:57:52.131Z,22.00
2023-04-21T12:00:19.316Z,22.53
2023-04-21T12:02:54.916Z,19.07
2023-04-21T12:05:22.514Z,19.83
2023-04-21T12:07:49.354Z,16.50
2023-04-21T12:10:21.027Z,17.53
2023-04-21T12:12:48.313Z,15.20
2023-04-21T12:15:20.330Z,13.97
2023-04-21T12:17:48.749Z,13.40
2023-04-21T12:20:23.860Z,18.53
2023-04-21T12:22:50.481Z,15.10
2023-04-21T12:25:17.266Z,14.93
2023-04-21T12:27:54.505Z,11.80
2023-04-21T12:30:21.786Z,15.90
2023-04-21T12:32:48.811Z,11.43
2023-04-21T12:35:15.738Z,10.30
2023-04-21T12:37:42.336Z,12.83
2023-04-21T12:40:09.650Z,11.83
2023-04-21T12:42:38.084Z,9.83
2023-04-21T12:45:05.696Z,14.17
2023-04-21T12:47:32.368Z,12.90
2023-04-21T12:49:59.173Z,15.07
2023-04-21T12:52:26.223Z,12.30
2023-04-21T12:54:52.860Z,15.63
2023-04-21T12:57:19.431Z,12.87
2023-04-21T12:59:46.577Z,17.63
2023-04-21T13:02:13.536Z,14.40
2023-04-21T13:04:42.128Z,11.73
2023-04-21T13:07:09.073Z,14.67
2023-04-21T13:09:35.723Z,14.37
2023-04-21T13:12:02.315Z,13.57
2023-04-21T13:14:29.368Z,13.90
2023-04-21T13:16:56.041Z,15.67
2023-04-21T13:19:22.720Z,9.93
2023-04-21T13:21:50.119Z,10.90
2023-04-21T13:24:17.650Z,18.43
2023-04-21T13:26:44.182Z,20.37
2023-04-21T13:29:10.715Z,12.60
2023-04-21T13:31:37.469Z,14.20
2023-04-21T13:34:04.196Z,9.53
2023-04-21T13:36:31.305Z,11.17
2023-04-21T13:38:59.159Z,11.63
2023-04-21T13:41:25.707Z,13.93
2023-04-21T13:43:52.357Z,14.17
2023-04-21T13:46:19.967Z,13.53
2023-04-21T13:48:46.723Z,9.63
2023-04-21T13:51:13.623Z,9.07
2023-04-21T13:53:41.401Z,9.80
2023-04-21T13:56:08.521Z,9.27
2023-04-21T13:58:35.950Z,5.93
2023-04-21T14:01:03.033Z,13.90
2023-04-21T14:03:29.953Z,8.70
2023-04-21T14:05:57.301Z,12.30
2023-04-21T14:08:24.305Z,11.23
2023-04-21T14:10:50.905Z,8.33
2023-04-21T14:15:50.217Z,8.73
2023-04-21T14:18:16.877Z,9.23
2023-04-21T14:20:43.556Z,6.23
2023-04-21T14:23:10.240Z,6.80
2023-04-21T14:25:36.776Z,5.70
2023-04-21T14:28:07.374Z,7.50
2023-04-21T14:30:37.883Z,14.60
2023-04-21T14:33:04.802Z,11.70
2023-04-21T14:35:31.605Z,5.67
2023-04-21T14:37:59.240Z,9.80
2023-04-21T14:40:25.944Z,10.03
2023-04-21T14:42:52.710Z,8.67
2023-04-21T14:45:19.240Z,10.77
2023-04-21T14:47:45.942Z,7.97
2023-04-21T14:50:12.631Z,13.00
2023-04-21T14:52:39.948Z,6.87
2023-04-21T14:55:06.896Z,10.37
2023-04-21T14:57:33.490Z,8.80
2023-04-21T15:00:00.339Z,18.20
2023-04-21T15:02:27.246Z,9.20
2023-04-21T15:04:54.009Z,13.07
2023-04-21T15:07:24.301Z,11.00
2023-04-21T15:09:52.135Z,9.87
2023-04-21T15:12:18.812Z,7.70
2023-04-21T15:14:45.532Z,14.10
2023-04-21T15:17:12.155Z,11.47
2023-04-21T15:19:38.747Z,11.73
2023-04-21T15:22:05.494Z,9.60
2023-04-21T15:24:32.073Z,9.57
2023-04-21T15:26:58.783Z,10.50
2023-04-21T15:29:25.524Z,15.83
2023-04-21T15:31:52.280Z,7.30
2023-04-21T15:34:18.944Z,11.93
2023-04-21T15:36:45.497Z,6.10
2023-04-21T15:39:14.241Z,9.90
2023-04-21T15:41:41.107Z,10.73
2023-04-21T15:44:07.948Z,5.43
2023-04-21T15:46:34.763Z,9.33
2023-04-21T15:49:01.515Z,10.03
2023-04-21T15:51:28.259Z,13.90
2023-04-21T15:53:54.906Z,7.90
2023-04-21T15:56:21.994Z,12.70
2023-04-21T15:58:48.581Z,8.60
2023-04-21T16:01:15.737Z,9.63
2023-04-21T16:03:42.812Z,7.50
2023-04-21T16:06:09.617Z,9.87
2023-04-21T16:08:36.231Z,6.87
2023-04-21T16:11:02.893Z,8.37
2023-04-21T16:13:29.702Z,14.70
2023-04-21T16:15:56.676Z,10.83
2023-04-21T16:18:23.527Z,8.93
2023-04-21T16:20:50.211Z,8.43
2023-04-21T16:23:17.249Z,11.13
2023-04-21T16:25:44.116Z,9.87
2023-04-21T16:28:11.744Z,15.33
2023-04-21T16:30:43.669Z,16.77
2023-04-21T16:33:14.491Z,8.83
2023-04-21T16:35:41.664Z,9.83
2023-04-21T16:38:08.510Z,9.97
2023-04-21T16:40:35.120Z,11.50
2023-04-21T16:43:01.684Z,10.70
2023-04-21T16:45:29.292Z,9.27
2023-04-21T16:47:56.561Z,10.33
2023-04-21T16:50:23.573Z,8.93
2023-04-21T16:52:50.185Z,11.17
2023-04-21T16:55:16.796Z,11.57
2023-04-21T16:57:43.250Z,17.77
2023-04-21T17:00:10.513Z,15.90
2023-04-21T17:02:37.321Z,13.00
2023-04-21T17:05:04.324Z,12.20
2023-04-21T17:07:32.045Z,12.63
2023-04-21T17:09:58.777Z,9.97
2023-04-21T17:12:25.563Z,13.70
2023-04-21T17:14:52.262Z,10.97
2023-04-21T17:17:18.906Z,14.27
2023-04-21T17:19:45.757Z,18.67
2023-04-21T17:22:12.494Z,13.83
2023-04-21T17:24:51.988Z,12.77
2023-04-21T17:27:20.243Z,18.20
2023-04-21T17:29:47.099Z,10.50
2023-04-21T17:32:14.333Z,7.83
2023-04-21T17:34:41.043Z,8.63
2023-04-21T17:37:07.557Z,14.70
2023-04-21T17:39:34.145Z,13.50
2023-04-21T17:42:02.576Z,14.17
2023-04-21T17:44:29.358Z,14.07
2023-04-21T17:46:56.129Z,14.53
2023-04-21T17:49:24.900Z,15.90
2023-04-21T17:51:51.968Z,12.90
2023-04-21T17:54:18.702Z,15.23
2023-04-21T17:56:48.246Z,17.13
2023-04-21T17:59:14.865Z,14.20
2023-04-21T18:01:41.470Z,10.73
2023-04-21T18:04:08.578Z,8.40
2023-04-21T18:06:35.832Z,8.60
2023-04-21T18:09:02.817Z,9.10
2023-04-21T18:11:29.407Z,11.00
2023-04-21T18:13:56.079Z,8.53
2023-04-21T18:16:22.724Z,12.37
2023-04-21T18:18:50.127Z,10.90
2023-04-21T18:21:16.804Z,18.80
2023-04-21T18:23:43.708Z,11.53
2023-04-21T18:26:10.242Z,11.97
2023-04-21T18:28:36.839Z,11.20
2023-04-21T18:31:03.566Z,8.57
2023-04-21T18:33:30.244Z,16.73
2023-04-21T18:35:56.805Z,14.50
2023-04-21T18:38:23.346Z,13.07
2023-04-21T18:40:49.805Z,12.43
2023-04-21T18:43:16.326Z,14.47
2023-04-21T18:45:42.919Z,14.43
2023-04-21T18:48:09.621Z,17.13
2023-04-21T18:50:40.140Z,17.70
2023-04-21T18:53:07.714Z,18.83
2023-04-21T18:55:35.986Z,15.13
2023-04-21T18:58:03.040Z,18.90
2023-04-21T19:00:32.070Z,26.70
2023-04-21T19:03:02.244Z,18.53
2023-04-21T19:05:31.081Z,17.50
2023-04-21T19:07:58.334Z,15.37
2023-04-21T19:10:24.882Z,28.30
2023-04-21T19:12:51.457Z,18.80
2023-04-21T19:15:18.374Z,20.23
2023-04-21T19:17:45.390Z,22.43
2023-04-21T19:20:13.345Z,17.13
2023-04-21T19:22:39.860Z,21.47
2023-04-21T19:25:08.151Z,20.23
2023-04-21T19:27:34.689Z,22.77
2023-04-21T19:30:01.207Z,24.10
2023-04-21T19:32:27.862Z,13.23
2023-04-21T19:34:54.930Z,18.93
2023-04-21T19:37:21.494Z,27.53
2023-04-21T19:39:48.075Z,18.40
2023-04-21T19:42:14.535Z,28.43
2023-04-21T19:44:41.155Z,18.50
2023-04-21T19:47:07.972Z,16.07
2023-04-21T19:49:34.510Z,19.27
2023-04-21T19:52:01.245Z,19.73
2023-04-21T19:54:27.868Z,18.80
2023-04-21T19:56:54.452Z,18.23
2023-04-21T19:59:21.392Z,14.00
2023-04-21T20:01:48.133Z,14.67
2023-04-21T20:04:14.920Z,14.70
2023-04-21T20:06:41.619Z,16.93
2023-04-21T20:09:09.812Z,15.80
2023-04-21T20:11:36.678Z,18.50
2023-04-21T20:14:03.199Z,12.30
2023-04-21T20:16:30.023Z,15.07
2023-04-21T20:18:57.083Z,13.73
2023-04-21T20:21:23.725Z,15.67
2023-04-21T20:23:50.302Z,22.30
2023-04-21T20:26:17.029Z,14.97
2023-04-21T20:28:43.536Z,13.47
2023-04-21T20:31:10.128Z,11.50
2023-04-21T20:33:36.734Z,14.43
2023-04-21T20:36:04.222Z,20.20
2023-04-21T20:38:34.474Z,18.33
2023-04-21T20:41:02.125Z,13.17
2023-04-21T20:43:28.971Z,14.90
2023-04-21T20:45:55.542Z,17.83
2023-04-21T20:48:22.249Z,20.13
2023-04-21T20:50:51.205Z,18.53
2023-04-21T20:53:18.438Z,18.30
2023-04-21T20:55:44.980Z,22.30
2023-04-21T20:58:11.765Z,13.83
2023-04-21T21:00:38.332Z,14.30
2023-04-21T21:03:10.076Z,15.23
2023-04-21T21:05:38.171Z,14.17
2023-04-21T21:08:05.660Z,23.80
2023-04-21T21:10:32.306Z,11.93
2023-04-21T21:12:59.710Z,9.10
2023-04-21T21:15:27.616Z,11.77
2023-04-21T21:17:54.372Z,12.43
2023-04-21T21:20:21.159Z,15.23
2023-04-21T21:22:47.760Z,10.07
2023-04-21T21:25:14.376Z,10.13
2023-04-21T21:27:40.883Z,13.03
2023-04-21T21:30:08.037Z,10.83
2023-04-21T21:32:34.778Z,9.90
2023-04-21T21:35:01.356Z,11.00
2023-04-21T21:37:28.264Z,10.20
2023-04-21T21:39:55.421Z,10.67
2023-04-21T21:42:22.675Z,16.37
2023-04-21T21:44:49.486Z,16.93
2023-04-21T21:47:17.535Z,17.03
2023-04-21T21:49:44.258Z,16.73
2023-04-21T21:52:11.035Z,15.13
2023-04-21T21:54:37.975Z,22.00
2023-04-21T21:57:04.704Z,21.40
2023-04-21T21:59:31.445Z,12.97
2023-04-21T22:01:58.171Z,16.70
2023-04-21T22:04:25.046Z,16.50
2023-04-21T22:06:51.993Z,11.17
2023-04-21T22:09:18.638Z,14.17
2023-04-21T22:11:46.188Z,13.33
2023-04-21T22:14:22.572Z,17.10
2023-04-21T22:16:50.728Z,14.57
2023-04-21T22:19:19.016Z,18.17
2023-04-21T22:21:45.971Z,16.13
2023-04-21T22:24:13.069Z,18.10
2023-04-21T22:26:39.753Z,8.23
2023-04-21T22:29:06.296Z,7.40
2023-04-21T22:31:33.174Z,8.90
2023-04-21T22:33:59.900Z,9.80
2023-04-21T22:36:26.760Z,13.23
2023-04-21T22:38:53.337Z,11.97
2023-04-21T22:41:20.909Z,14.77
2023-04-21T22:43:47.919Z,10.80
2023-04-21T22:46:14.688Z,8.57
2023-04-21T22:48:41.538Z,10.07
2023-04-21T22:51:08.048Z,8.30
2023-04-21T22:53:34.864Z,8.57
2023-04-21T22:56:02.278Z,10.93
2023-04-21T22:58:28.890Z,9.97
2023-04-21T23:00:55.905Z,16.57
2023-04-21T23:03:23.676Z,9.07
2023-04-21T23:05:50.381Z,9.03
2023-04-21T23:08:16.979Z,12.83
2023-04-21T23:10:43.732Z,19.77
2023-04-21T23:13:10.457Z,9.17
2023-04-21T23:15:36.983Z,8.00
2023-04-21T23:18:03.718Z,8.33
2023-04-21T23:20:31.187Z,7.73
2023-04-21T23:22:58.069Z,8.40
2023-04-21T23:25:24.639Z,8.33
2023-04-21T23:27:51.265Z,11.37
2023-04-21T23:30:17.830Z,13.30
2023-04-21T23:32:45.404Z,12.07
2023-04-21T23:35:12.195Z,11.83
2023-04-21T23:37:38.725Z,10.60
2023-04-21T23:40:09.298Z,6.30
2023-04-21T23:42:36.291Z,12.50
2023-04-21T23:45:03.720Z,8.33
2023-04-21T23:47:30.571Z,10.90
2023-04-21T23:49:57.374Z,10.50
2023-04-21T23:52:23.890Z,8.30
2023-04-21T23:54:50.802Z,11.90
2023-04-21T23:57:17.446Z,16.03
2023-04-21T23:59:44.247Z,11.13
